createdAt,value
2023-05-13T00:01:09.024Z,7.72
2023-05-13T00:03:36.379Z,7.88
2023-05-13T00:06:03.590Z,8.00
2023-05-13T00:08:30.604Z,7.72
2023-05-13T00:10:57.393Z,7.88
2023-05-13T00:13:24.243Z,8.40
2023-05-13T00:15:51.191Z,8.80
2023-05-13T00:18:18.143Z,8.40
2023-05-13T00:20:45.104Z,8.82
2023-05-13T00:23:11.871Z,9.32
2023-05-13T00:25:38.673Z,9.38
2023-05-13T00:28:05.550Z,9.05
2023-05-13T00:30:32.472Z,8.77
2023-05-13T00:32:59.306Z,8.95
2023-05-13T00:35:26.346Z,9.20
2023-05-13T00:37:53.114Z,9.20
2023-05-13T00:40:22.528Z,8.40
2023-05-13T00:42:49.981Z,9.48
2023-05-13T00:45:17.231Z,9.23
2023-05-13T00:47:44.343Z,9.60
2023-05-13T00:50:11.921Z,9.07
2023-05-13T00:52:39.873Z,9.40
2023-05-13T00:55:07.911Z,9.25
2023-05-13T00:57:35.324Z,9.55
2023-05-13T01:00:03.783Z,9.52
2023-05-13T01:02:42.860Z,9.65
2023-05-13T01:05:15.410Z,9.02
2023-05-13T01:07:53.900Z,9.40
2023-05-13T01:10:44.627Z,10.25
2023-05-13T01:13:18.337Z,9.98
2023-05-13T01:19:44.986Z,9.40
2023-05-13T01:22:12.018Z,9.23
2023-05-13T01:24:38.881Z,10.23
2023-05-13T01:27:07.022Z,10.10
2023-05-13T01:29:34.012Z,9.77
2023-05-13T01:32:02.130Z,10.00
2023-05-13T01:34:29.588Z,9.77
2023-05-13T01:36:56.629Z,9.27
2023-05-13T01:39:24.859Z,10.15
2023-05-13T01:41:51.955Z,9.43
2023-05-13T01:44:18.715Z,9.95
2023-05-13T01:46:47.074Z,10.55
2023-05-13T01:49:13.963Z,10.35
2023-05-13T01:51:41.493Z,10.68
2023-05-13T01:54:08.396Z,11.05
2023-05-13T01:56:35.267Z,10.25
2023-05-13T01:59:02.189Z,10.55
2023-05-13T02:01:29.003Z,10.65
2023-05-13T02:03:59.716Z,10.00
2023-05-13T02:06:27.986Z,10.65
2023-05-13T02:08:54.945Z,10.48
2023-05-13T02:11:22.459Z,10.23
2023-05-13T02:13:49.322Z,10.52
2023-05-13T02:16:20.347Z,10.55
2023-05-13T02:18:47.155Z,10.07
2023-05-13T02:21:13.967Z,10.13
2023-05-13T02:23:40.785Z,10.95
2023-05-13T02:26:07.586Z,11.65
2023-05-13T02:28:34.427Z,11.57
2023-05-13T02:31:01.158Z,10.90
2023-05-13T02:33:27.932Z,10.93
2023-05-13T02:35:54.761Z,11.73
2023-05-13T02:38:21.587Z,10.73
2023-05-13T02:40:48.375Z,11.63
2023-05-13T02:43:15.259Z,10.45
2023-05-13T02:45:42.074Z,10.43
2023-05-13T02:48:10.881Z,11.23
2023-05-13T02:50:37.807Z,11.55
2023-05-13T02:53:04.677Z,10.05
2023-05-13T02:55:31.522Z,11.13
2023-05-13T02:57:58.465Z,10.95
2023-05-13T03:00:25.386Z,10.85
2023-05-13T03:02:52.304Z,10.40
2023-05-13T03:05:19.107Z,10.82
2023-05-13T03:07:46.072Z,11.25
2023-05-13T03:10:13.451Z,10.45
2023-05-13T03:12:40.353Z,10.68
2023-05-13T03:15:07.653Z,10.27
2023-05-13T03:17:34.413Z,10.85
2023-05-13T03:20:01.304Z,11.18
2023-05-13T03:22:28.046Z,11.15
2023-05-13T03:24:55.028Z,11.63
2023-05-13T03:27:21.774Z,11.95
2023-05-13T03:29:48.487Z,11.20
2023-05-13T03:32:15.428Z,10.68
2023-05-13T03:34:42.293Z,11.02
2023-05-13T03:37:09.902Z,10.82
2023-05-13T03:39:36.653Z,11.07
2023-05-13T03:42:03.530Z,11.93
2023-05-13T03:44:30.362Z,11.75
2023-05-13T03:46:57.150Z,12.00
2023-05-13T03:49:23.982Z,12.60
2023-05-13T03:51:50.955Z,11.75
2023-05-13T03:54:17.741Z,11.45
2023-05-13T03:56:44.506Z,11.32
2023-05-13T03:59:11.294Z,11.57
2023-05-13T04:01:38.062Z,11.57
2023-05-13T04:04:04.957Z,10.63
2023-05-13T04:06:31.930Z,11.68
2023-05-13T04:08:58.734Z,11.18
2023-05-13T04:11:25.905Z,11.27
2023-05-13T04:13:52.660Z,11.40
2023-05-13T04:16:19.463Z,11.65
2023-05-13T04:18:46.419Z,10.90
2023-05-13T04:21:13.246Z,12.70
2023-05-13T04:23:39.990Z,11.27
2023-05-13T04:26:06.751Z,10.73
2023-05-13T04:28:34.653Z,11.18
2023-05-13T04:31:02.870Z,10.73
2023-05-13T04:33:29.796Z,10.77
2023-05-13T04:35:56.652Z,11.30
2023-05-13T04:38:23.424Z,11.90
2023-05-13T04:40:50.835Z,11.05
2023-05-13T04:43:18.670Z,11.52
2023-05-13T04:45:47.769Z,11.02
2023-05-13T04:48:14.907Z,12.07
2023-05-13T04:50:48.071Z,10.90
2023-05-13T04:53:15.654Z,11.73
2023-05-13T04:55:42.733Z,11.85
2023-05-13T04:58:09.512Z,10.82
2023-05-13T05:00:36.343Z,11.10
2023-05-13T05:03:03.200Z,11.07
2023-05-13T05:05:30.111Z,10.85
2023-05-13T05:07:56.937Z,11.55
2023-05-13T05:10:24.062Z,11.00
2023-05-13T05:12:51.014Z,11.02
2023-05-13T05:15:17.832Z,10.07
2023-05-13T05:17:45.007Z,10.75
2023-05-13T05:20:13.274Z,9.85
2023-05-13T05:22:41.786Z,9.02
2023-05-13T05:25:10.010Z,9.15
2023-05-13T05:27:36.807Z,9.65
2023-05-13T05:30:03.815Z,9.50
2023-05-13T05:32:30.968Z,9.32
2023-05-13T05:34:57.850Z,9.75
2023-05-13T05:37:24.596Z,9.13
2023-05-13T05:39:51.448Z,9.25
2023-05-13T05:42:18.241Z,8.98
2023-05-13T05:44:45.048Z,8.70
2023-05-13T05:47:11.861Z,8.63
2023-05-13T05:49:38.732Z,8.52
2023-05-13T05:52:05.865Z,8.05
2023-05-13T05:54:32.719Z,7.97
2023-05-13T05:56:59.488Z,7.10
2023-05-13T05:59:26.342Z,7.85
2023-05-13T06:01:53.167Z,6.97
2023-05-13T06:04:20.006Z,7.13
2023-05-13T06:06:46.849Z,7.55
2023-05-13T06:09:13.774Z,6.45
2023-05-13T06:11:41.775Z,6.28
2023-05-13T06:14:09.427Z,6.47
2023-05-13T06:16:36.242Z,5.82
2023-05-13T06:19:03.626Z,6.15
2023-05-13T06:21:32.058Z,5.13
2023-05-13T06:23:58.885Z,5.90
2023-05-13T06:26:25.735Z,5.55
2023-05-13T06:28:52.470Z,5.53
2023-05-13T06:31:19.249Z,5.85
2023-05-13T06:33:46.037Z,6.00
2023-05-13T06:36:13.115Z,6.68
2023-05-13T06:38:39.875Z,6.13
2023-05-13T06:41:06.664Z,5.22
2023-05-13T06:43:33.475Z,7.18
2023-05-13T06:46:00.973Z,5.55
2023-05-13T06:48:27.765Z,7.20
2023-05-13T06:50:54.548Z,7.22
2023-05-13T06:53:21.439Z,4.78
2023-05-13T06:55:48.422Z,6.43
2023-05-13T06:58:15.388Z,4.25
2023-05-13T07:00:42.215Z,4.57
2023-05-13T07:03:09.541Z,4.53
2023-05-13T07:05:36.571Z,4.47
2023-05-13T07:08:06.949Z,4.68
2023-05-13T07:10:34.441Z,5.13
2023-05-13T07:13:04.390Z,4.35
2023-05-13T07:15:31.359Z,4.85
2023-05-13T07:17:58.182Z,4.80
2023-05-13T07:20:26.441Z,4.10
2023-05-13T07:22:53.575Z,4.43
2023-05-13T07:25:20.495Z,4.25
2023-05-13T07:27:47.860Z,4.30
2023-05-13T07:30:15.042Z,4.15
2023-05-13T07:33:42.460Z,4.18
2023-05-13T07:36:09.441Z,4.28
2023-05-13T07:38:36.232Z,4.47
2023-05-13T07:41:03.074Z,4.05
2023-05-13T07:43:29.922Z,3.55
2023-05-13T07:45:56.721Z,4.72
2023-05-13T07:48:25.270Z,4.47
2023-05-13T07:50:52.483Z,4.63
2023-05-13T07:53:19.992Z,3.97
2023-05-13T07:55:50.163Z,3.88
2023-05-13T07:58:18.667Z,4.07
2023-05-13T08:00:45.692Z,3.83
2023-05-13T08:03:12.746Z,3.80
2023-05-13T08:05:39.661Z,3.42
2023-05-13T08:08:06.532Z,3.42
2023-05-13T08:10:33.289Z,4.25
2023-05-13T08:13:00.997Z,3.28
2023-05-13T08:15:28.267Z,4.18
2023-05-13T08:17:55.158Z,3.13
2023-05-13T08:20:26.628Z,3.15
2023-05-13T08:22:53.527Z,3.53
2023-05-13T08:25:20.602Z,3.40
2023-05-13T08:27:47.632Z,3.83
2023-05-13T08:30:14.936Z,3.60
2023-05-13T08:32:41.784Z,3.28
2023-05-13T08:35:45.775Z,3.47
2023-05-13T08:38:12.583Z,3.25
2023-05-13T08:40:39.479Z,2.72
2023-05-13T08:43:07.225Z,2.63
2023-05-13T08:45:36.384Z,2.67
2023-05-13T08:48:05.668Z,2.72
2023-05-13T08:50:32.748Z,3.05
2023-05-13T08:53:02.724Z,3.30
2023-05-13T08:55:29.540Z,3.38
2023-05-13T08:57:56.436Z,2.92
2023-05-13T09:00:23.427Z,2.60
2023-05-13T09:02:51.722Z,3.15
2023-05-13T09:05:18.918Z,3.53
2023-05-13T09:07:46.090Z,2.72
2023-05-13T09:10:12.846Z,2.95
2023-05-13T09:12:53.804Z,2.88
2023-05-13T09:15:26.018Z,2.60
2023-05-13T09:17:58.407Z,3.00
2023-05-13T09:20:26.068Z,2.33
2023-05-13T09:22:54.039Z,2.90
2023-05-13T09:25:24.498Z,2.80
2023-05-13T09:28:02.700Z,2.83
2023-05-13T09:30:30.913Z,2.88
2023-05-13T09:33:10.168Z,2.90
2023-05-13T09:35:48.659Z,2.97
2023-05-13T09:38:29.333Z,3.08
2023-05-13T09:40:57.968Z,2.65
2023-05-13T09:43:26.974Z,2.55
2023-05-13T09:46:00.688Z,3.25
2023-05-13T09:48:30.296Z,3.00
2023-05-13T09:50:58.323Z,2.90
2023-05-13T09:53:26.554Z,2.20
2023-05-13T09:55:55.023Z,2.10
2023-05-13T09:58:24.245Z,2.65
2023-05-13T10:00:51.814Z,2.47
2023-05-13T10:03:18.681Z,2.45
2023-05-13T10:05:45.977Z,1.75
2023-05-13T10:08:14.994Z,2.38
2023-05-13T10:10:45.720Z,2.35
2023-05-13T10:13:15.054Z,2.35
2023-05-13T10:15:55.677Z,2.53
2023-05-13T10:18:26.260Z,2.00
2023-05-13T10:20:53.904Z,3.10
2023-05-13T10:23:22.683Z,2.60
2023-05-13T10:25:51.958Z,2.55
2023-05-13T10:28:19.320Z,2.30
2023-05-13T10:30:46.340Z,2.15
2023-05-13T10:33:13.936Z,2.38
2023-05-13T10:35:49.495Z,2.72
2023-05-13T10:38:35.383Z,2.55
2023-05-13T10:41:30.000Z,2.92
2023-05-13T10:43:58.698Z,2.90
2023-05-13T10:46:26.078Z,2.47
2023-05-13T10:49:00.931Z,2.45
2023-05-13T10:53:57.827Z,2.67
2023-05-13T10:56:27.837Z,2.70
2023-05-13T10:58:58.148Z,2.72
2023-05-13T11:01:36.022Z,2.53
2023-05-13T11:04:05.029Z,2.97
2023-05-13T11:06:37.055Z,2.67
2023-05-13T11:09:28.880Z,2.30
2023-05-13T11:12:00.120Z,2.33
2023-05-13T11:14:30.226Z,2.55
2023-05-13T11:17:04.371Z,2.50
2023-05-13T11:19:32.604Z,2.25
2023-05-13T11:22:10.448Z,2.63
2023-05-13T11:24:37.452Z,2.35
2023-05-13T11:27:21.143Z,2.45
2023-05-13T11:29:50.690Z,2.00
2023-05-13T11:32:54.020Z,2.15
2023-05-13T11:35:29.397Z,2.28
2023-05-13T11:37:59.861Z,2.50
2023-05-13T11:40:36.380Z,2.55
2023-05-13T11:43:06.097Z,2.35
2023-05-13T11:45:33.815Z,2.60
2023-05-13T11:48:22.179Z,2.22
2023-05-13T11:50:50.695Z,2.42
2023-05-13T11:53:23.860Z,2.55
2023-05-13T11:55:51.688Z,2.35
2023-05-13T11:58:20.793Z,1.95
2023-05-13T12:00:47.609Z,2.80
2023-05-13T12:03:16.270Z,2.10
2023-05-13T12:05:44.686Z,2.40
2023-05-13T12:08:11.753Z,2.20
2023-05-13T12:10:45.627Z,2.22
2023-05-13T12:13:12.895Z,2.60
2023-05-13T12:15:39.995Z,2.65
2023-05-13T12:18:08.162Z,2.55
2023-05-13T12:20:35.556Z,2.40
2023-05-13T12:23:02.777Z,2.35
2023-05-13T12:25:46.544Z,1.98
2023-05-13T12:28:19.530Z,2.25
2023-05-13T12:30:56.675Z,2.10
2023-05-13T12:33:24.572Z,2.00
2023-05-13T12:35:53.907Z,3.83
2023-05-13T12:38:24.734Z,2.90
2023-05-13T12:40:52.478Z,2.42
2023-05-13T12:43:20.288Z,2.22
2023-05-13T12:45:51.869Z,2.30
2023-05-13T12:48:24.844Z,2.30
2023-05-13T12:50:51.865Z,2.30
2023-05-13T12:53:18.631Z,4.00
2023-05-13T12:55:45.469Z,2.78
2023-05-13T12:58:13.194Z,1.88
2023-05-13T13:00:40.352Z,2.33
2023-05-13T13:03:08.066Z,2.40
2023-05-13T13:05:35.407Z,2.60
2023-05-13T13:08:05.008Z,2.47
2023-05-13T13:10:31.892Z,2.58
2023-05-13T13:12:58.731Z,2.50
2023-05-13T13:15:25.774Z,2.20
2023-05-13T13:17:52.763Z,2.20
2023-05-13T13:20:19.576Z,2.20
2023-05-13T13:22:46.396Z,3.05
2023-05-13T13:25:13.189Z,2.63
2023-05-13T13:27:39.984Z,2.53
2023-05-13T13:30:09.070Z,2.50
2023-05-13T13:32:36.023Z,2.58
2023-05-13T13:35:05.424Z,2.10
2023-05-13T13:37:32.209Z,2.40
2023-05-13T13:39:59.002Z,2.85
2023-05-13T13:42:33.601Z,2.35
2023-05-13T13:45:10.668Z,2.97
2023-05-13T13:47:37.564Z,2.75
2023-05-13T13:50:04.780Z,2.40
2023-05-13T13:52:31.620Z,3.20
2023-05-13T13:54:58.413Z,2.75
2023-05-13T13:57:25.244Z,2.85
2023-05-13T13:59:52.090Z,3.03
2023-05-13T14:02:18.907Z,2.90
2023-05-13T14:04:46.463Z,2.97
2023-05-13T14:07:13.491Z,3.20
2023-05-13T14:09:40.426Z,2.72
2023-05-13T14:12:07.298Z,2.67
2023-05-13T14:14:34.097Z,2.65
2023-05-13T14:17:00.974Z,2.63
2023-05-13T14:19:27.757Z,2.20
2023-05-13T14:21:54.463Z,2.72
2023-05-13T14:24:21.362Z,2.75
2023-05-13T14:26:48.150Z,2.22
2023-05-13T14:29:14.870Z,2.63
2023-05-13T14:31:41.792Z,2.42
2023-05-13T14:34:08.599Z,2.28
2023-05-13T14:36:36.084Z,2.70
2023-05-13T14:39:03.010Z,3.10
2023-05-13T14:41:30.297Z,2.50
2023-05-13T14:43:57.051Z,2.40
2023-05-13T14:46:23.858Z,2.70
2023-05-13T14:48:50.883Z,2.90
2023-05-13T14:51:17.850Z,2.83
2023-05-13T14:53:44.845Z,2.63
2023-05-13T14:56:11.976Z,3.10
2023-05-13T14:58:38.804Z,2.65
2023-05-13T15:01:05.676Z,2.70
2023-05-13T15:03:32.672Z,2.85
2023-05-13T15:05:59.520Z,2.50
2023-05-13T15:08:26.356Z,2.72
2023-05-13T15:10:53.122Z,2.92
2023-05-13T15:13:19.940Z,2.95
2023-05-13T15:15:46.794Z,3.15
2023-05-13T15:18:14.085Z,2.78
2023-05-13T15:20:41.012Z,3.13
2023-05-13T15:23:07.766Z,3.22
2023-05-13T15:25:35.379Z,3.63
2023-05-13T15:28:02.540Z,4.60
2023-05-13T15:30:29.601Z,3.35
2023-05-13T15:32:56.544Z,3.72
2023-05-13T15:35:23.326Z,3.10
2023-05-13T15:37:50.082Z,3.25
2023-05-13T15:40:17.151Z,2.80
2023-05-13T15:42:43.924Z,3.22
2023-05-13T15:45:10.827Z,3.22
2023-05-13T15:47:37.767Z,2.78
2023-05-13T15:50:05.327Z,2.83
2023-05-13T15:52:32.163Z,3.20
2023-05-13T15:54:59.138Z,3.00
2023-05-13T15:57:25.982Z,2.72
2023-05-13T15:59:52.784Z,3.47
2023-05-13T16:02:19.655Z,2.97
2023-05-13T16:04:46.553Z,3.30
2023-05-13T16:07:13.424Z,3.47
2023-05-13T16:09:40.506Z,3.40
2023-05-13T16:12:07.526Z,3.08
2023-05-13T16:14:34.680Z,3.20
2023-05-13T16:17:03.393Z,3.42
2023-05-13T16:19:30.184Z,3.63
2023-05-13T16:21:56.961Z,3.28
2023-05-13T16:24:23.736Z,3.13
2023-05-13T16:26:50.471Z,3.10
2023-05-13T16:29:17.778Z,2.97
2023-05-13T16:31:44.890Z,3.42
2023-05-13T16:34:11.795Z,3.17
2023-05-13T16:36:38.661Z,3.38
2023-05-13T16:39:05.497Z,3.10
2023-05-13T16:41:33.160Z,3.47
2023-05-13T16:43:59.981Z,3.72
2023-05-13T16:46:26.739Z,3.47
2023-05-13T16:48:53.636Z,3.20
2023-05-13T16:51:20.584Z,4.13
2023-05-13T16:53:47.536Z,3.47
2023-05-13T16:56:14.415Z,3.47
2023-05-13T16:58:41.445Z,3.40
2023-05-13T17:01:08.333Z,3.20
2023-05-13T17:03:35.234Z,3.60
2023-05-13T17:06:03.102Z,3.45
2023-05-13T17:08:30.046Z,3.42
2023-05-13T17:10:56.779Z,3.95
2023-05-13T17:13:23.628Z,3.90
2023-05-13T17:15:50.844Z,3.33
2023-05-13T17:18:17.951Z,3.35
2023-05-13T17:20:45.900Z,3.20
2023-05-13T17:23:12.753Z,4.40
2023-05-13T17:25:39.543Z,4.28
2023-05-13T17:28:09.209Z,3.75
2023-05-13T17:30:36.051Z,3.58
2023-05-13T17:33:02.905Z,3.35
2023-05-13T17:35:29.686Z,3.58
2023-05-13T17:37:56.595Z,3.65
2023-05-13T17:40:23.617Z,3.75
2023-05-13T17:42:52.749Z,3.80
2023-05-13T17:45:19.895Z,3.67
2023-05-13T17:47:46.943Z,3.65
2023-05-13T17:50:14.898Z,4.05
2023-05-13T17:52:41.909Z,4.00
2023-05-13T17:55:09.473Z,4.00
2023-05-13T17:57:36.289Z,3.83
2023-05-13T18:00:07.044Z,4.30
2023-05-13T18:02:34.054Z,4.38
2023-05-13T18:05:00.949Z,4.15
2023-05-13T18:07:28.015Z,4.63
2023-05-13T18:09:54.998Z,5.60
2023-05-13T18:12:21.875Z,3.95
2023-05-13T18:14:48.657Z,4.30
2023-05-13T18:17:15.379Z,3.53
2023-05-13T18:19:42.110Z,3.60
2023-05-13T18:22:09.240Z,4.00
2023-05-13T18:24:38.219Z,4.80
2023-05-13T18:27:06.625Z,4.32
2023-05-13T18:29:33.817Z,4.10
2023-05-13T18:32:00.726Z,4.50
2023-05-13T18:34:27.857Z,3.83
2023-05-13T18:36:54.881Z,3.63
2023-05-13T18:39:21.913Z,3.63
2023-05-13T18:41:49.086Z,4.03
2023-05-13T18:44:16.086Z,3.90
2023-05-13T18:46:44.532Z,4.05
2023-05-13T18:49:11.897Z,3.90
2023-05-13T18:51:38.713Z,4.50
2023-05-13T18:54:06.208Z,4.28
2023-05-13T18:56:33.752Z,5.43
2023-05-13T18:59:00.846Z,4.85
2023-05-13T19:01:27.714Z,4.20
2023-05-13T19:03:54.719Z,4.68
2023-05-13T19:06:21.720Z,4.18
2023-05-13T19:08:48.616Z,4.38
2023-05-13T19:11:15.406Z,4.00
2023-05-13T19:13:47.320Z,4.38
2023-05-13T19:16:15.318Z,4.05
2023-05-13T19:18:42.520Z,3.95
2023-05-13T19:21:09.317Z,4.32
2023-05-13T19:23:37.852Z,4.68
2023-05-13T19:26:04.688Z,4.05
2023-05-13T19:28:32.030Z,4.20
2023-05-13T19:30:58.856Z,4.65
2023-05-13T19:33:26.096Z,4.68
2023-05-13T19:35:52.873Z,4.70
2023-05-13T19:38:20.776Z,4.47
2023-05-13T19:40:47.950Z,4.32
2023-05-13T19:43:14.820Z,4.82
2023-05-13T19:45:41.941Z,4.65
2023-05-13T19:48:08.860Z,4.65
2023-05-13T19:50:35.827Z,5.22
2023-05-13T19:53:02.585Z,4.90
2023-05-13T19:55:29.702Z,5.47
2023-05-13T19:57:56.825Z,6.78
2023-05-13T20:00:24.190Z,5.72
2023-05-13T20:02:51.592Z,5.93
2023-05-13T20:05:18.455Z,4.93
2023-05-13T20:07:45.648Z,5.50
2023-05-13T20:10:12.646Z,5.60
2023-05-13T20:12:39.395Z,5.63
2023-05-13T20:15:06.971Z,6.07
2023-05-13T20:17:34.138Z,6.05
2023-05-13T20:20:01.246Z,6.20
2023-05-13T20:22:28.126Z,6.07
2023-05-13T20:24:54.964Z,6.38
2023-05-13T20:27:21.818Z,5.95
2023-05-13T20:29:49.270Z,5.97
2023-05-13T20:32:24.608Z,5.57
2023-05-13T20:34:52.554Z,5.43
2023-05-13T20:37:21.825Z,5.65
2023-05-13T20:39:50.260Z,5.30
2023-05-13T20:42:17.204Z,5.50
2023-05-13T20:44:45.922Z,5.65
2023-05-13T20:47:13.564Z,6.13
2023-05-13T20:49:43.636Z,5.85
2023-05-13T20:52:11.364Z,5.93
2023-05-13T20:54:38.316Z,5.60
2023-05-13T20:57:05.620Z,5.55
2023-05-13T20:59:32.540Z,6.80
2023-05-13T21:01:59.531Z,5.97
2023-05-13T21:04:26.738Z,5.97
2023-05-13T21:06:53.560Z,6.35
2023-05-13T21:09:20.345Z,6.15
2023-05-13T21:11:47.115Z,5.80
2023-05-13T21:14:13.942Z,6.32
2023-05-13T21:16:40.743Z,5.80
2023-05-13T21:19:07.669Z,5.55
2023-05-13T21:21:34.501Z,5.90
2023-05-13T21:24:01.300Z,6.13
2023-05-13T21:26:28.143Z,6.43
2023-05-13T21:28:54.953Z,6.03
2023-05-13T21:31:21.863Z,5.88
2023-05-13T21:33:49.078Z,6.97
2023-05-13T21:36:16.118Z,5.70
2023-05-13T21:38:42.952Z,6.38
2023-05-13T21:41:09.757Z,5.53
2023-05-13T21:43:36.556Z,6.07
2023-05-13T21:46:03.479Z,5.40
2023-05-13T21:48:30.375Z,5.60
2023-05-13T21:50:57.849Z,6.32
2023-05-13T21:53:24.587Z,5.90
2023-05-13T21:55:51.852Z,5.85
2023-05-13T21:58:19.435Z,6.97
2023-05-13T22:00:47.609Z,7.50
2023-05-13T22:03:14.376Z,6.75
2023-05-13T22:05:44.127Z,6.78
2023-05-13T22:08:11.377Z,6.95
2023-05-13T22:10:39.164Z,7.72
2023-05-13T22:13:06.316Z,7.50
2023-05-13T22:15:33.123Z,7.25
2023-05-13T22:17:59.948Z,7.07
2023-05-13T22:20:26.842Z,6.43
2023-05-13T22:22:53.593Z,6.53
2023-05-13T22:25:20.363Z,6.82
2023-05-13T22:27:48.651Z,7.75
2023-05-13T22:30:15.540Z,10.85
2023-05-13T22:32:42.377Z,10.60
2023-05-13T22:35:09.587Z,9.73
2023-05-13T22:37:36.441Z,9.13
2023-05-13T22:40:03.211Z,8.98
2023-05-13T22:42:30.005Z,9.45
2023-05-13T22:44:56.829Z,9.98
2023-05-13T22:47:23.660Z,10.57
2023-05-13T22:49:50.591Z,10.07
2023-05-13T22:52:17.404Z,11.20
2023-05-13T22:54:44.277Z,11.85
2023-05-13T22:57:11.160Z,9.25
2023-05-13T22:59:38.052Z,9.27
2023-05-13T23:02:05.169Z,8.70
2023-05-13T23:04:32.309Z,9.10
2023-05-13T23:06:59.110Z,8.43
2023-05-13T23:09:25.877Z,9.63
2023-05-13T23:11:52.682Z,9.95
2023-05-13T23:14:19.391Z,9.40
2023-05-13T23:16:46.188Z,10.10
2023-05-13T23:19:13.069Z,10.68
2023-05-13T23:21:39.873Z,10.18
2023-05-13T23:24:06.786Z,9.73
2023-05-13T23:26:33.764Z,11.15
2023-05-13T23:29:00.600Z,12.40
2023-05-13T23:31:27.494Z,11.73
2023-05-13T23:33:54.302Z,11.20
2023-05-13T23:36:21.125Z,10.02
2023-05-13T23:38:47.895Z,10.80
2023-05-13T23:41:14.603Z,9.38
2023-05-13T23:43:41.409Z,10.00
2023-05-13T23:46:08.251Z,9.90
2023-05-13T23:48:35.236Z,10.02
2023-05-13T23:51:02.065Z,9.85
2023-05-13T23:53:28.857Z,9.18
2023-05-13T23:55:55.698Z,10.18
2023-05-13T23:58:22.488Z,9.70
